Time,TemperatureF,DewpointF,PressureIn,WindDirection,WindDirectionDegrees,WindSpeedMPH,WindSpeedGustMPH,Humidity,HourlyPrecipIn,Conditions,Clouds,dailyrainin,SolarRadiationWatts/m^2,SoftwareType,DateUTC
2013-02-12 00:01:00,25.0,16.0,-100.00,SSE,165,3.0,12.0,69,0.00,,,0.00,0.000000,,2013-02-12 07:01:00,
2013-02-12 00:32:00,26.0,17.0,-100.00,SSW,199,4.0,9.0,67,0.00,,,0.00,0.000000,,2013-02-12 07:32:00,
2013-02-12 00:42:00,26.0,17.0,-100.00,SSW,199,4.0,9.0,67,0.00,,,0.00,0.000000,,2013-02-12 07:42:00,
2013-02-12 00:52:00,26.0,17.0,-100.00,SSW,199,4.0,9.0,67,0.00,,,0.00,0.000000,,2013-02-12 07:52:00,
2013-02-12 01:01:00,26.0,17.0,-100.00,SSW,199,4.0,9.0,67,0.00,,,0.00,0.000000,,2013-02-12 08:01:00,
2013-02-12 01:32:00,28.0,18.0,-100.00,WSW,258,7.0,13.0,66,0.00,,,0.00,0.000000,,2013-02-12 08:32:00,
2013-02-12 01:42:00,28.0,18.0,-100.00,WSW,258,7.0,13.0,66,0.00,,,0.00,0.000000,,2013-02-12 08:42:00,
2013-02-12 01:52:00,28.0,18.0,-100.00,WSW,258,7.0,13.0,66,0.00,,,0.00,0.000000,,2013-02-12 08:52:00,
2013-02-12 02:01:00,28.0,18.0,-100.00,WSW,258,7.0,13.0,66,0.00,,,0.00,0.000000,,2013-02-12 09:01:00,
2013-02-12 02:32:00,27.0,17.0,-100.00,North,359,3.0,17.0,66,0.00,,,0.00,0.000000,,2013-02-12 09:32:00,
2013-02-12 02:42:00,27.0,17.0,-100.00,North,359,3.0,17.0,66,0.00,,,0.00,0.000000,,2013-02-12 09:42:00,
2013-02-12 02:52:00,27.0,17.0,-100.00,North,359,3.0,17.0,66,0.00,,,0.00,0.000000,,2013-02-12 09:52:00,
2013-02-12 03:01:00,27.0,17.0,-100.00,North,359,3.0,17.0,66,0.00,,,0.00,0.000000,,2013-02-12 10:01:00,
2013-02-12 03:32:00,28.0,19.0,-100.00,West,261,8.0,19.0,69,0.00,,,0.00,0.000000,,2013-02-12 10:32:00,
2013-02-12 03:43:00,28.0,19.0,-100.00,West,261,8.0,19.0,69,0.00,,,0.00,0.000000,,2013-02-12 10:43:00,
2013-02-12 03:52:00,28.0,19.0,-100.00,West,261,8.0,19.0,69,0.00,,,0.00,0.000000,,2013-02-12 10:52:00,
2013-02-12 04:01:00,28.0,19.0,-100.00,West,261,8.0,19.0,69,0.00,,,0.00,0.000000,,2013-02-12 11:01:00,
2013-02-12 04:32:00,27.0,19.0,-100.00,WSW,250,6.0,16.0,71,0.00,,,0.00,0.000000,,2013-02-12 11:32:00,
2013-02-12 04:42:00,27.0,19.0,-100.00,WSW,250,6.0,16.0,71,0.00,,,0.00,0.000000,,2013-02-12 11:42:00,
2013-02-12 04:52:00,27.0,19.0,-100.00,WSW,250,6.0,16.0,71,0.00,,,0.00,0.000000,,2013-02-12 11:52:00,
2013-02-12 05:01:00,27.0,19.0,-100.00,WSW,250,6.0,16.0,71,0.00,,,0.00,0.000000,,2013-02-12 12:01:00,
2013-02-12 05:32:00,26.0,19.0,-100.00,ESE,114,3.0,13.0,73,0.00,,,0.00,0.000000,,2013-02-12 12:32:00,
2013-02-12 05:42:00,26.0,19.0,-100.00,ESE,114,3.0,13.0,73,0.00,,,0.00,0.000000,,2013-02-12 12:42:00,
2013-02-12 05:52:00,26.0,19.0,-100.00,ESE,114,3.0,13.0,73,0.00,,,0.00,0.000000,,2013-02-12 12:52:00,
2013-02-12 06:01:00,26.0,19.0,-100.00,ESE,114,3.0,13.0,73,0.00,,,0.00,0.000000,,2013-02-12 13:01:00,
2013-02-12 06:32:00,27.0,22.0,-100.00,WSW,241,6.0,12.0,80,0.00,,,0.00,0.000000,,2013-02-12 13:32:00,
2013-02-12 06:42:00,27.0,22.0,-100.00,WSW,241,6.0,12.0,80,0.00,,,0.00,0.000000,,2013-02-12 13:42:00,
2013-02-12 06:52:00,27.0,22.0,-100.00,WSW,241,6.0,12.0,80,0.00,,,0.00,0.000000,,2013-02-12 13:52:00,
2013-02-12 07:01:00,27.0,22.0,-100.00,WSW,241,6.0,12.0,80,0.00,,,0.00,0.000000,,2013-02-12 14:01:00,
2013-02-12 07:32:00,26.0,21.0,-100.00,SSW,204,5.0,15.0,81,0.00,,,-99.99,0.000000,,2013-02-12 14:32:00,
2013-02-12 07:42:00,26.0,21.0,-100.00,SSW,204,5.0,15.0,81,0.00,,,-99.99,0.000000,,2013-02-12 14:42:00,
2013-02-12 07:52:00,26.0,21.0,-100.00,SSW,204,5.0,15.0,81,0.00,,,-99.99,0.000000,,2013-02-12 14:52:00,
2013-02-12 08:01:00,26.0,21.0,-100.00,SSW,204,5.0,15.0,81,0.00,,,-99.99,0.000000,,2013-02-12 15:01:00,
2013-02-12 08:32:00,26.0,22.0,-100.00,SE,124,4.0,13.0,86,0.00,,,-99.99,2.000000,,2013-02-12 15:32:00,
2013-02-12 08:42:00,26.0,22.0,-100.00,SE,124,4.0,13.0,86,0.00,,,-99.99,2.000000,,2013-02-12 15:42:00,
2013-02-12 08:52:00,26.0,22.0,-100.00,SE,124,4.0,13.0,86,0.00,,,-99.99,2.000000,,2013-02-12 15:52:00,
2013-02-12 09:01:00,26.0,22.0,-100.00,SE,124,4.0,13.0,86,0.00,,,-99.99,2.000000,,2013-02-12 16:01:00,
2013-02-12 09:32:00,27.0,22.0,-100.00,ESE,115,4.0,9.0,82,0.00,,,0.00,40.000000,,2013-02-12 16:32:00,
2013-02-12 09:42:00,27.0,22.0,-100.00,ESE,115,4.0,9.0,82,0.00,,,0.00,40.000000,,2013-02-12 16:42:00,
2013-02-12 09:52:00,27.0,22.0,-100.00,ESE,115,4.0,9.0,82,0.00,,,0.00,40.000000,,2013-02-12 16:52:00,
2013-02-12 10:01:00,27.0,22.0,-100.00,ESE,115,4.0,9.0,82,0.00,,,0.00,40.000000,,2013-02-12 17:01:00,
2013-02-12 10:32:00,28.0,23.0,-100.00,East,101,4.0,10.0,81,0.00,,,0.00,83.000000,,2013-02-12 17:32:00,
2013-02-12 10:42:00,28.0,23.0,-100.00,East,101,4.0,10.0,81,0.00,,,0.00,83.000000,,2013-02-12 17:42:00,
2013-02-12 10:52:00,28.0,23.0,-100.00,East,101,4.0,10.0,81,0.00,,,0.00,83.000000,,2013-02-12 17:52:00,
2013-02-12 11:01:00,28.0,23.0,-100.00,East,101,4.0,10.0,81,0.00,,,0.00,83.000000,,2013-02-12 18:01:00,
2013-02-12 12:32:00,31.0,23.0,-100.00,WSW,246,8.0,17.0,71,-99.99,,,-99.99,198.000000,,2013-02-12 19:32:00,
2013-02-12 12:42:00,31.0,23.0,-100.00,WSW,246,8.0,17.0,71,-99.99,,,-99.99,198.000000,,2013-02-12 19:42:00,
2013-02-12 12:52:00,31.0,23.0,-100.00,WSW,246,8.0,17.0,71,-99.99,,,-99.99,198.000000,,2013-02-12 19:52:00,
2013-02-12 13:01:00,31.0,23.0,-100.00,WSW,246,8.0,17.0,71,-99.99,,,-99.99,198.000000,,2013-02-12 20:01:00,
2013-02-12 14:32:00,31.0,22.0,-100.00,West,259,11.0,19.0,68,-99.99,,,0.00,190.000000,,2013-02-12 21:32:00,
2013-02-12 14:42:00,31.0,22.0,-100.00,West,259,11.0,19.0,68,-99.99,,,0.00,190.000000,,2013-02-12 21:42:00,
2013-02-12 14:52:00,31.0,22.0,-100.00,West,259,11.0,19.0,68,-99.99,,,0.00,190.000000,,2013-02-12 21:52:00,
2013-02-12 15:01:00,31.0,22.0,-100.00,West,259,11.0,19.0,68,-99.99,,,0.00,190.000000,,2013-02-12 22:01:00,
2013-02-12 15:32:00,32.0,22.0,-100.00,West,265,10.0,26.0,67,0.00,,,0.00,166.000000,,2013-02-12 22:32:00,
2013-02-12 15:42:00,32.0,22.0,-100.00,West,265,10.0,26.0,67,0.00,,,0.00,166.000000,,2013-02-12 22:42:00,
2013-02-12 15:52:00,32.0,22.0,-100.00,West,265,10.0,26.0,67,0.00,,,0.00,166.000000,,2013-02-12 22:52:00,
2013-02-12 16:01:00,32.0,22.0,-100.00,West,265,10.0,26.0,67,0.00,,,0.00,166.000000,,2013-02-12 23:01:00,
2013-02-12 16:32:00,32.0,19.0,-100.00,WSW,256,9.0,22.0,57,0.00,,,0.00,194.000000,,2013-02-12 23:32:00,
2013-02-12 16:42:00,32.0,19.0,-100.00,WSW,256,9.0,22.0,57,0.00,,,0.00,194.000000,,2013-02-12 23:42:00,
2013-02-12 16:52:00,32.0,19.0,-100.00,WSW,256,9.0,22.0,57,0.00,,,0.00,194.000000,,2013-02-12 23:52:00,
2013-02-12 17:02:00,32.0,19.0,-100.00,WSW,256,9.0,22.0,57,0.00,,,0.00,194.000000,,2013-02-13 00:02:00,
2013-02-12 17:32:00,29.0,19.0,-100.00,West,273,14.0,21.0,65,0.00,,,0.00,80.000000,,2013-02-13 00:32:00,
2013-02-12 17:42:00,29.0,19.0,-100.00,West,273,14.0,21.0,65,0.00,,,0.00,80.000000,,2013-02-13 00:42:00,
2013-02-12 17:52:00,29.0,19.0,-100.00,West,273,14.0,21.0,65,0.00,,,0.00,80.000000,,2013-02-13 00:52:00,
2013-02-12 18:01:00,29.0,19.0,-100.00,West,273,14.0,21.0,65,0.00,,,0.00,80.000000,,2013-02-13 01:01:00,
2013-02-12 19:42:00,30.0,20.0,-100.00,WSW,253,8.0,18.0,67,-99.99,,,0.00,0.000000,,2013-02-13 02:42:00,
2013-02-12 19:52:00,30.0,20.0,-100.00,WSW,253,8.0,18.0,67,-99.99,,,0.00,0.000000,,2013-02-13 02:52:00,
2013-02-12 20:01:00,30.0,20.0,-100.00,WSW,253,8.0,18.0,67,-99.99,,,0.00,0.000000,,2013-02-13 03:01:00,
2013-02-12 20:32:00,29.0,20.0,-100.00,WSW,246,7.0,24.0,69,0.00,,,0.00,0.000000,,2013-02-13 03:32:00,
2013-02-12 20:42:00,29.0,20.0,-100.00,WSW,246,7.0,24.0,69,0.00,,,0.00,0.000000,,2013-02-13 03:42:00,
2013-02-12 20:52:00,29.0,20.0,-100.00,WSW,246,7.0,24.0,69,0.00,,,0.00,0.000000,,2013-02-13 03:52:00,
2013-02-12 21:01:00,29.0,20.0,-100.00,WSW,246,7.0,24.0,69,0.00,,,0.00,0.000000,,2013-02-13 04:01:00,
2013-02-12 21:32:00,30.0,21.0,-100.00,SE,141,4.0,15.0,68,0.00,,,0.00,0.000000,,2013-02-13 04:32:00,
2013-02-12 21:42:00,30.0,21.0,-100.00,SE,141,4.0,15.0,68,0.00,,,0.00,0.000000,,2013-02-13 04:42:00,
2013-02-12 21:52:00,30.0,21.0,-100.00,SE,141,4.0,15.0,68,0.00,,,0.00,0.000000,,2013-02-13 04:52:00,
2013-02-12 22:01:00,30.0,21.0,-100.00,SE,141,4.0,15.0,68,0.00,,,0.00,0.000000,,2013-02-13 05:01:00,
2013-02-12 22:32:00,30.0,21.0,-100.00,WSW,245,8.0,16.0,69,0.00,,,-99.99,0.000000,,2013-02-13 05:32:00,
2013-02-12 22:42:00,30.0,21.0,-100.00,WSW,245,8.0,16.0,69,0.00,,,-99.99,0.000000,,2013-02-13 05:42:00,
2013-02-12 22:52:00,30.0,21.0,-100.00,WSW,245,8.0,16.0,69,0.00,,,-99.99,0.000000,,2013-02-13 05:52:00,
2013-02-12 23:02:00,30.0,21.0,-100.00,WSW,245,8.0,16.0,69,0.00,,,-99.99,0.000000,,2013-02-13 06:02:00,
2013-02-12 23:32:00,29.0,21.0,-100.00,ESE,108,3.0,12.0,72,0.00,,,0.00,0.000000,,2013-02-13 06:32:00,
2013-02-12 23:42:00,29.0,21.0,-100.00,ESE,108,3.0,12.0,72,0.00,,,0.00,0.000000,,2013-02-13 06:42:00,
2013-02-12 23:52:00,29.0,21.0,-100.00,ESE,108,3.0,12.0,72,0.00,,,0.00,0.000000,,2013-02-13 06:52:00,